createdAt,value
2022-08-07T00:01:44.686Z,64.61
2022-08-07T00:04:15.507Z,65.12
2022-08-07T00:06:51.428Z,65.28
2022-08-07T00:09:22.831Z,65.51
2022-08-07T00:11:55.928Z,66.13
2022-08-07T00:14:29.974Z,66.01
2022-08-07T00:16:59.804Z,65.87
2022-08-07T00:19:34.117Z,65.53
2022-08-07T00:22:13.686Z,65.56
2022-08-07T00:24:52.106Z,65.46
2022-08-07T00:27:18.883Z,65.33
2022-08-07T00:29:49.895Z,65.43
2022-08-07T00:32:17.057Z,65.10
2022-08-07T00:34:46.970Z,65.24
2022-08-07T00:37:18.569Z,64.72
2022-08-07T00:39:54.546Z,64.88
2022-08-07T00:42:29.126Z,64.99
2022-08-07T00:44:56.332Z,65.05
2022-08-07T00:48:07.978Z,65.05
2022-08-07T00:50:19.992Z,65.12
2022-08-07T00:52:57.080Z,64.71
2022-08-07T00:56:00.206Z,64.83
2022-08-07T00:58:12.198Z,64.60
2022-08-07T01:00:39.125Z,64.57
2022-08-07T01:03:25.455Z,64.32
2022-08-07T01:06:09.549Z,63.78
2022-08-07T01:08:51.429Z,63.66
2022-08-07T01:12:04.641Z,63.88
2022-08-07T01:14:08.840Z,62.38
2022-08-07T01:16:37.206Z,62.75
2022-08-07T01:19:10.815Z,62.63
2022-08-07T01:21:48.159Z,62.60
2022-08-07T01:24:21.139Z,62.57
2022-08-07T01:26:51.688Z,62.42
2022-08-07T01:29:24.226Z,62.44
2022-08-07T01:31:59.535Z,62.51
2022-08-07T01:34:32.709Z,63.05
2022-08-07T01:37:09.873Z,62.88
2022-08-07T01:39:40.873Z,62.72
2022-08-07T01:42:58.653Z,62.99
2022-08-07T01:45:37.309Z,63.52
2022-08-07T01:48:20.459Z,63.29
2022-08-07T01:51:24.362Z,63.10
2022-08-07T01:54:11.714Z,62.97
2022-08-07T01:56:56.628Z,63.10
2022-08-07T02:00:12.900Z,63.56
2022-08-07T02:03:11.699Z,63.73
2022-08-07T02:06:01.391Z,63.87
2022-08-07T02:08:36.530Z,63.67
2022-08-07T02:11:05.269Z,63.82
2022-08-07T02:13:57.894Z,63.77
2022-08-07T02:16:29.938Z,63.80
2022-08-07T02:20:07.508Z,63.53
2022-08-07T02:21:57.772Z,63.19
2022-08-07T02:24:30.079Z,63.46
2022-08-07T02:27:01.210Z,63.38
2022-08-07T02:29:32.115Z,63.53
2022-08-07T02:32:04.532Z,63.46
2022-08-07T02:34:32.647Z,63.40
2022-08-07T02:37:08.125Z,63.33
2022-08-07T02:39:42.889Z,62.98
2022-08-07T02:42:17.693Z,61.89
2022-08-07T02:44:51.884Z,62.06
2022-08-07T02:47:24.737Z,62.43
2022-08-07T02:50:00.208Z,62.29
2022-08-07T02:52:38.302Z,62.25
2022-08-07T02:55:28.243Z,62.06
2022-08-07T02:58:10.843Z,61.97
2022-08-07T03:00:46.890Z,61.99
2022-08-07T03:03:21.170Z,61.82
2022-08-07T03:05:54.658Z,62.48
2022-08-07T03:08:26.834Z,62.14
2022-08-07T03:11:01.470Z,61.99
2022-08-07T03:13:38.999Z,62.07
2022-08-07T03:16:18.216Z,62.16
2022-08-07T03:18:52.440Z,62.42
2022-08-07T03:21:21.180Z,61.97
2022-08-07T03:24:20.966Z,62.02
2022-08-07T03:26:50.883Z,61.93
2022-08-07T03:29:27.602Z,61.69
2022-08-07T03:31:56.132Z,62.04
2022-08-07T03:34:27.550Z,61.42
2022-08-07T03:37:12.349Z,61.22
2022-08-07T03:40:00.045Z,61.56
2022-08-07T03:42:34.521Z,61.12
2022-08-07T03:45:06.388Z,61.63
2022-08-07T03:47:48.038Z,61.25
2022-08-07T03:50:23.113Z,61.43
2022-08-07T03:52:54.046Z,60.96
2022-08-07T03:55:22.393Z,61.00
2022-08-07T03:58:35.389Z,60.94
2022-08-07T04:00:46.559Z,61.02
2022-08-07T04:03:21.186Z,60.64
2022-08-07T04:05:50.847Z,61.12
2022-08-07T04:08:21.908Z,61.31
2022-08-07T04:10:54.460Z,61.58
2022-08-07T04:14:14.030Z,62.29
2022-08-07T04:16:32.258Z,62.41
2022-08-07T04:19:12.599Z,61.75
2022-08-07T04:21:59.579Z,62.09
2022-08-07T04:24:39.044Z,61.87
2022-08-07T04:27:20.311Z,62.32
2022-08-07T04:30:02.360Z,62.04
2022-08-07T04:32:44.917Z,62.86
2022-08-07T04:35:17.111Z,62.88
2022-08-07T04:38:01.155Z,63.74
2022-08-07T04:40:32.242Z,63.77
2022-08-07T04:43:02.085Z,62.95
2022-08-07T04:46:01.276Z,62.92
2022-08-07T04:48:37.401Z,62.47
2022-08-07T04:51:11.165Z,62.29
2022-08-07T04:54:05.746Z,62.55
2022-08-07T04:58:23.668Z,63.02
2022-08-07T05:00:10.746Z,62.68
2022-08-07T05:03:38.645Z,62.53
2022-08-07T05:05:59.717Z,62.45
2022-08-07T05:09:00.762Z,62.26
2022-08-07T05:11:57.639Z,62.35
2022-08-07T05:14:52.590Z,62.28
2022-08-07T05:17:51.522Z,61.74
2022-08-07T05:20:22.655Z,61.70
2022-08-07T05:22:52.993Z,61.47
2022-08-07T05:25:25.546Z,61.81
2022-08-07T05:28:20.492Z,61.35
2022-08-07T05:30:54.406Z,61.87
2022-08-07T05:33:23.580Z,61.64
2022-08-07T05:35:53.361Z,61.95
2022-08-07T05:39:01.265Z,61.91
2022-08-07T05:41:16.913Z,61.37
2022-08-07T05:44:12.023Z,61.48
2022-08-07T05:46:47.802Z,61.63
2022-08-07T05:49:23.190Z,61.69
2022-08-07T05:51:51.692Z,61.74
2022-08-07T05:54:31.273Z,61.84
2022-08-07T05:57:12.942Z,61.33
2022-08-07T05:59:57.866Z,61.76
2022-08-07T06:02:31.781Z,60.96
2022-08-07T06:05:07.242Z,60.86
2022-08-07T06:08:14.847Z,61.04
2022-08-07T06:10:28.664Z,60.64
2022-08-07T06:12:56.502Z,60.77
2022-08-07T06:15:39.068Z,60.73
2022-08-07T06:18:13.940Z,60.64
2022-08-07T06:20:49.863Z,60.30
2022-08-07T06:24:36.799Z,60.34
2022-08-07T06:26:27.484Z,60.53
2022-08-07T06:28:57.926Z,60.19
2022-08-07T06:31:46.995Z,59.92
2022-08-07T06:34:16.159Z,59.62
2022-08-07T06:36:47.052Z,59.43
2022-08-07T06:40:16.130Z,59.10
2022-08-07T06:42:12.019Z,58.83
2022-08-07T06:55:34.102Z,58.46
2022-08-07T06:58:02.960Z,58.74
2022-08-07T07:00:38.812Z,58.62
2022-08-07T07:03:13.966Z,58.44
2022-08-07T07:06:02.926Z,58.41
2022-08-07T07:08:34.870Z,58.23
2022-08-07T07:11:13.911Z,58.40
2022-08-07T07:14:01.305Z,58.35
2022-08-07T07:16:34.022Z,58.03
2022-08-07T07:19:54.538Z,58.02
2022-08-07T07:22:11.660Z,58.25
2022-08-07T07:24:56.920Z,58.29
2022-08-07T07:27:35.542Z,58.21
2022-08-07T07:30:32.739Z,58.35
2022-08-07T07:33:07.805Z,58.29
2022-08-07T07:35:44.126Z,58.01
2022-08-07T07:38:24.424Z,57.61
2022-08-07T07:40:57.608Z,57.33
2022-08-07T07:44:13.714Z,57.75
2022-08-07T07:46:37.922Z,57.58
2022-08-07T07:50:15.944Z,57.55
2022-08-07T07:51:58.232Z,57.60
2022-08-07T07:54:28.153Z,57.49
2022-08-07T07:56:57.637Z,57.36
2022-08-07T07:59:52.748Z,56.74
2022-08-07T08:02:22.586Z,56.08
2022-08-07T08:05:05.516Z,55.76
2022-08-07T08:07:59.684Z,56.04
2022-08-07T08:10:38.130Z,55.73
2022-08-07T08:13:10.513Z,55.71
2022-08-07T08:15:58.835Z,55.81
2022-08-07T08:18:28.874Z,55.54
2022-08-07T08:20:59.756Z,55.89
2022-08-07T08:23:30.285Z,56.03
2022-08-07T08:26:06.875Z,55.85
2022-08-07T08:28:43.466Z,55.60
2022-08-07T08:31:30.211Z,56.14
2022-08-07T08:34:06.538Z,56.35
2022-08-07T08:36:37.280Z,56.26
2022-08-07T08:39:09.055Z,56.27
2022-08-07T08:41:58.584Z,56.48
2022-08-07T08:44:44.708Z,56.60
2022-08-07T08:47:52.890Z,56.34
2022-08-07T08:50:38.845Z,56.49
2022-08-07T08:53:19.354Z,56.63
2022-08-07T08:55:58.634Z,56.54
2022-08-07T08:59:02.322Z,56.62
2022-08-07T09:02:10.858Z,56.58
2022-08-07T09:05:23.628Z,56.41
2022-08-07T09:07:59.946Z,56.06
2022-08-07T09:10:39.196Z,56.31
2022-08-07T09:13:19.474Z,56.60
2022-08-07T09:16:21.841Z,56.09
2022-08-07T09:19:07.302Z,56.58
2022-08-07T09:22:37.050Z,56.52
2022-08-07T09:25:40.477Z,56.35
2022-08-07T09:30:02.170Z,56.11
2022-08-07T09:31:25.369Z,56.10
2022-08-07T09:34:09.879Z,55.63
2022-08-07T09:36:56.009Z,55.85
2022-08-07T09:39:54.115Z,55.36
2022-08-07T09:42:43.252Z,55.50
2022-08-07T09:47:42.298Z,55.39
2022-08-07T09:48:56.222Z,55.42
2022-08-07T09:52:15.800Z,54.79
2022-08-07T09:54:28.359Z,54.92
2022-08-07T09:57:14.319Z,55.00
2022-08-07T09:59:46.449Z,54.91
2022-08-07T10:02:55.501Z,54.64
2022-08-07T10:06:00.807Z,54.34
2022-08-07T10:09:10.324Z,54.14
2022-08-07T10:12:18.089Z,54.15
2022-08-07T10:15:00.415Z,53.60
2022-08-07T10:17:30.959Z,52.99
2022-08-07T10:20:37.416Z,52.90
2022-08-07T10:24:05.921Z,52.83
2022-08-07T10:26:26.055Z,52.94
2022-08-07T10:29:31.401Z,52.37
2022-08-07T10:32:37.029Z,52.56
2022-08-07T10:35:53.623Z,52.63
2022-08-07T10:38:41.181Z,52.77
2022-08-07T10:41:51.815Z,51.99
2022-08-07T10:44:33.801Z,51.75
2022-08-07T10:47:48.801Z,51.91
2022-08-07T10:50:25.934Z,51.73
2022-08-07T10:53:28.615Z,50.86
2022-08-07T10:56:40.722Z,51.65
2022-08-07T10:59:24.747Z,50.66
2022-08-07T11:02:33.627Z,50.15
2022-08-07T11:05:19.178Z,50.53
2022-08-07T11:08:07.074Z,51.71
2022-08-07T11:10:52.391Z,49.77
2022-08-07T11:14:43.878Z,50.00
2022-08-07T11:16:55.722Z,48.65
2022-08-07T11:19:49.097Z,48.81
2022-08-07T11:22:45.645Z,48.88
2022-08-07T11:25:28.188Z,49.05
2022-08-07T11:28:07.063Z,49.38
2022-08-07T11:30:59.639Z,49.09
2022-08-07T11:33:58.663Z,49.14
2022-08-07T11:36:36.559Z,49.03
2022-08-07T11:39:23.253Z,49.31
2022-08-07T11:42:16.893Z,49.22
2022-08-07T11:45:07.221Z,50.02
2022-08-07T11:47:56.280Z,49.34
2022-08-07T11:51:08.921Z,48.77
2022-08-07T11:54:00.643Z,49.10
2022-08-07T11:56:36.522Z,48.32
2022-08-07T12:00:08.158Z,48.45
2022-08-07T12:02:52.460Z,48.56
2022-08-07T12:05:48.913Z,48.32
2022-08-07T12:09:03.076Z,48.82
2022-08-07T12:11:43.478Z,48.15
2022-08-07T12:14:35.205Z,47.91
2022-08-07T12:17:19.854Z,48.08
2022-08-07T12:20:10.321Z,47.40
2022-08-07T12:24:05.120Z,47.43
2022-08-07T12:26:30.064Z,46.83
2022-08-07T12:29:21.090Z,47.18
2022-08-07T12:32:23.710Z,47.31
2022-08-07T12:34:56.261Z,47.26
2022-08-07T12:37:28.482Z,47.28
2022-08-07T12:40:44.142Z,47.35
2022-08-07T12:43:09.946Z,47.31
2022-08-07T12:45:54.573Z,46.85
2022-08-07T12:48:41.070Z,46.73
2022-08-07T12:51:24.001Z,47.51
2022-08-07T12:54:23.936Z,47.28
2022-08-07T12:56:55.222Z,46.76
2022-08-07T12:59:33.291Z,46.24
2022-08-07T13:02:42.468Z,46.39
2022-08-07T13:06:04.429Z,46.08
2022-08-07T13:08:56.222Z,45.95
2022-08-07T13:12:03.096Z,45.92
2022-08-07T13:14:59.015Z,46.20
2022-08-07T13:17:53.155Z,45.26
2022-08-07T13:20:43.155Z,46.19
2022-08-07T13:24:02.258Z,45.24
2022-08-07T13:26:15.754Z,45.16
2022-08-07T13:29:16.858Z,44.76
2022-08-07T13:32:32.234Z,44.24
2022-08-07T13:35:08.806Z,44.02
2022-08-07T13:37:55.434Z,44.24
2022-08-07T13:40:41.768Z,44.16
2022-08-07T13:43:15.052Z,44.18
2022-08-07T13:46:12.490Z,44.12
2022-08-07T13:48:58.361Z,43.58
2022-08-07T13:51:27.548Z,43.07
2022-08-07T13:54:16.436Z,43.34
2022-08-07T13:56:55.785Z,42.36
2022-08-07T13:59:27.493Z,42.31
2022-08-07T14:02:04.550Z,42.36
2022-08-07T14:04:36.066Z,42.47
2022-08-07T14:07:09.721Z,42.78
2022-08-07T14:10:14.967Z,42.51
2022-08-07T14:12:54.749Z,42.25
2022-08-07T14:15:39.567Z,42.74
2022-08-07T14:18:28.674Z,42.27
2022-08-07T14:21:21.170Z,42.44
2022-08-07T14:24:04.010Z,43.05
2022-08-07T14:26:53.549Z,42.35
2022-08-07T14:30:09.587Z,42.29
2022-08-07T14:32:16.240Z,41.94
2022-08-07T14:34:48.811Z,42.40
2022-08-07T14:37:19.086Z,41.88
2022-08-07T14:40:16.566Z,42.55
2022-08-07T14:43:55.594Z,41.57
2022-08-07T14:45:47.032Z,41.83
2022-08-07T14:48:27.290Z,41.48
2022-08-07T14:50:57.041Z,41.42
2022-08-07T14:54:05.512Z,41.63
2022-08-07T14:56:15.815Z,41.90
2022-08-07T14:59:03.843Z,42.14
2022-08-07T15:01:42.677Z,42.27
2022-08-07T15:04:19.175Z,42.34
2022-08-07T15:06:48.111Z,42.37
2022-08-07T15:09:47.078Z,42.32
2022-08-07T15:12:10.940Z,42.45
2022-08-07T15:14:59.553Z,42.60
2022-08-07T15:17:55.210Z,43.00
2022-08-07T15:20:32.925Z,43.18
2022-08-07T15:25:55.943Z,43.13
2022-08-07T15:28:35.138Z,43.14
2022-08-07T15:31:12.191Z,43.44
2022-08-07T15:33:42.543Z,43.36
2022-08-07T15:36:10.601Z,43.68
2022-08-07T15:44:21.161Z,44.13
2022-08-07T15:47:09.118Z,44.03
2022-08-07T15:50:05.788Z,43.70
2022-08-07T15:52:37.770Z,43.99
2022-08-07T15:55:08.807Z,44.15
2022-08-07T15:57:39.689Z,44.24
2022-08-07T16:00:31.259Z,44.45
2022-08-07T16:03:20.830Z,44.60
2022-08-07T16:06:05.679Z,44.85
2022-08-07T16:08:38.544Z,44.69
2022-08-07T16:11:28.734Z,44.80
2022-08-07T16:14:12.729Z,44.94
2022-08-07T16:17:02.534Z,44.88
2022-08-07T16:20:00.554Z,45.24
2022-08-07T16:22:38.846Z,45.06
2022-08-07T16:25:53.046Z,44.97
2022-08-07T16:30:05.419Z,45.24
2022-08-07T16:31:50.990Z,45.28
2022-08-07T16:34:48.298Z,45.15
2022-08-07T16:38:03.035Z,45.61
2022-08-07T16:40:57.355Z,45.30
2022-08-07T16:44:06.157Z,45.39
2022-08-07T16:47:07.621Z,45.64
2022-08-07T16:50:29.310Z,45.45
2022-08-07T16:52:55.729Z,45.62
2022-08-07T16:55:47.671Z,45.97
2022-08-07T16:58:33.687Z,46.11
2022-08-07T17:01:22.864Z,46.32
2022-08-07T17:04:12.254Z,46.11
2022-08-07T17:07:09.141Z,46.99
2022-08-07T17:10:07.969Z,50.01
2022-08-07T17:12:56.680Z,51.43
2022-08-07T17:16:09.703Z,55.14
2022-08-07T17:19:05.014Z,56.61
2022-08-07T17:21:50.664Z,60.04
2022-08-07T17:24:42.854Z,62.68
2022-08-07T17:27:32.555Z,60.17
2022-08-07T17:30:14.765Z,63.51
2022-08-07T17:34:15.314Z,65.42
2022-08-07T17:36:20.765Z,66.61
2022-08-07T17:39:10.173Z,65.94
2022-08-07T17:42:01.961Z,67.49
2022-08-07T17:44:42.728Z,67.18
2022-08-07T17:47:38.104Z,68.10
2022-08-07T17:50:18.996Z,68.20
2022-08-07T17:53:55.647Z,68.48
2022-08-07T17:56:28.476Z,69.48
2022-08-07T17:58:56.872Z,68.33
2022-08-07T18:01:44.787Z,69.64
2022-08-07T18:04:37.511Z,72.31
2022-08-07T18:07:20.219Z,72.87
2022-08-07T18:10:06.110Z,72.12
2022-08-07T18:13:00.180Z,71.53
2022-08-07T18:15:55.715Z,72.40
2022-08-07T18:18:46.806Z,72.52
2022-08-07T18:21:38.269Z,73.07
2022-08-07T18:24:34.344Z,73.90
2022-08-07T18:27:24.061Z,75.87
2022-08-07T18:30:32.490Z,78.53
2022-08-07T18:33:15.212Z,78.93
2022-08-07T18:36:12.987Z,79.89
2022-08-07T18:39:01.290Z,79.46
2022-08-07T18:41:54.993Z,79.98
2022-08-07T18:45:43.007Z,81.13
2022-08-07T18:47:44.862Z,80.88
2022-08-07T18:50:39.589Z,79.54
2022-08-07T18:53:14.610Z,80.77
2022-08-07T18:56:01.680Z,81.78
2022-08-07T18:58:51.434Z,81.45
2022-08-07T19:02:18.365Z,81.67
2022-08-07T19:05:15.153Z,80.72
2022-08-07T19:07:56.985Z,79.43
2022-08-07T19:10:31.934Z,80.88
2022-08-07T19:13:43.688Z,79.09
2022-08-07T19:17:04.141Z,78.97
2022-08-07T19:19:16.722Z,78.82
2022-08-07T19:21:56.257Z,77.01
2022-08-07T19:24:43.320Z,76.59
2022-08-07T19:28:29.854Z,76.59
2022-08-07T19:31:00.549Z,76.76
2022-08-07T19:32:56.052Z,76.77
2022-08-07T19:35:33.172Z,76.43
2022-08-07T19:38:15.116Z,75.75
2022-08-07T19:40:50.571Z,75.96
2022-08-07T19:43:43.612Z,75.02
2022-08-07T19:46:16.061Z,76.38
2022-08-07T19:48:53.788Z,77.73
2022-08-07T19:51:51.376Z,78.10
2022-08-07T19:54:31.145Z,77.74
2022-08-07T19:58:02.673Z,77.93
2022-08-07T19:59:58.578Z,77.54
2022-08-07T20:02:33.132Z,76.64
2022-08-07T20:05:07.621Z,76.45
2022-08-07T20:07:47.962Z,74.53
2022-08-07T20:10:35.058Z,74.81
2022-08-07T20:13:26.880Z,73.73
2022-08-07T20:15:57.922Z,74.28
2022-08-07T20:18:32.894Z,73.42
2022-08-07T20:21:21.103Z,73.17
2022-08-07T20:24:22.377Z,73.71
2022-08-07T20:26:54.450Z,73.36
2022-08-07T20:29:48.671Z,73.13
2022-08-07T20:32:22.678Z,74.51
2022-08-07T20:35:00.372Z,73.47
2022-08-07T20:37:57.747Z,73.19
2022-08-07T20:40:32.436Z,76.78
2022-08-07T20:43:14.576Z,76.57
2022-08-07T20:46:26.563Z,76.64
2022-08-07T20:48:39.640Z,74.06
2022-08-07T20:51:29.272Z,73.92
2022-08-07T20:54:08.488Z,70.84
2022-08-07T20:56:39.541Z,70.20
2022-08-07T21:00:05.616Z,70.52
2022-08-07T21:02:01.037Z,70.57
2022-08-07T21:04:31.216Z,70.59
2022-08-07T21:07:03.881Z,72.18
2022-08-07T21:09:53.309Z,71.09
2022-08-07T21:12:30.781Z,70.97
2022-08-07T21:15:03.196Z,70.31
2022-08-07T21:18:03.076Z,70.05
2022-08-07T21:20:29.420Z,70.10
2022-08-07T21:22:59.169Z,69.30
2022-08-07T21:26:03.008Z,68.73
2022-08-07T21:28:48.654Z,69.04
2022-08-07T21:31:49.360Z,69.93
2022-08-07T21:34:48.992Z,69.55
2022-08-07T21:37:25.829Z,68.82
2022-08-07T21:40:07.906Z,67.56
2022-08-07T21:43:01.150Z,68.30
2022-08-07T21:46:25.034Z,68.82
2022-08-07T21:49:14.496Z,68.09
2022-08-07T21:52:39.844Z,68.59
2022-08-07T21:55:30.898Z,68.55
2022-08-07T21:58:00.422Z,66.75
2022-08-07T22:00:31.528Z,68.74
2022-08-07T22:03:18.737Z,69.77
2022-08-07T22:06:30.854Z,68.51
2022-08-07T22:09:00.214Z,66.55
2022-08-07T22:11:30.819Z,69.00
2022-08-07T22:14:23.710Z,69.31
2022-08-07T22:17:04.318Z,70.72
2022-08-07T22:19:49.776Z,71.45
2022-08-07T22:22:29.387Z,71.83
2022-08-07T22:25:04.668Z,68.00
2022-08-07T22:28:07.351Z,66.81
2022-08-07T22:31:05.109Z,65.91
2022-08-07T22:33:56.925Z,66.13
2022-08-07T22:36:52.664Z,65.80
2022-08-07T22:39:53.057Z,64.61
2022-08-07T22:42:26.045Z,65.94
2022-08-07T22:45:03.765Z,66.69
2022-08-07T22:48:13.612Z,67.87
2022-08-07T22:51:11.247Z,68.92
2022-08-07T22:54:16.201Z,69.73
2022-08-07T22:57:20.376Z,70.88
2022-08-07T23:00:14.250Z,71.32
2022-08-07T23:02:51.652Z,71.17
2022-08-07T23:06:07.306Z,71.02
2022-08-07T23:08:58.638Z,70.66
2022-08-07T23:12:32.538Z,70.36
2022-08-07T23:16:04.293Z,70.34
2022-08-07T23:18:43.486Z,71.29
2022-08-07T23:21:40.185Z,70.18
2022-08-07T23:24:27.984Z,71.70
2022-08-07T23:27:01.206Z,71.69
2022-08-07T23:30:36.305Z,69.50
2022-08-07T23:34:18.823Z,69.68
2022-08-07T23:35:48.103Z,70.13
2022-08-07T23:38:36.880Z,69.87
2022-08-07T23:41:19.002Z,70.39
2022-08-07T23:44:05.496Z,70.12
2022-08-07T23:47:01.264Z,70.68
2022-08-07T23:50:03.200Z,70.28
2022-08-07T23:53:01.232Z,70.51
2022-08-07T23:56:03.189Z,70.74
2022-08-07T23:58:49.917Z,69.18
